createdAt,value
2023-05-09T00:00:19.261Z,16.71
2023-05-09T00:01:19.253Z,16.69
2023-05-09T00:02:19.238Z,16.66
2023-05-09T00:03:19.280Z,16.64
2023-05-09T00:04:19.281Z,16.65
2023-05-09T00:05:19.206Z,16.64
2023-05-09T00:06:19.202Z,16.64
2023-05-09T00:07:19.190Z,16.65
2023-05-09T00:08:19.268Z,16.64
2023-05-09T00:09:19.211Z,16.61
2023-05-09T00:10:19.146Z,16.61
2023-05-09T00:11:19.160Z,16.60
2023-05-09T00:12:19.149Z,16.60
2023-05-09T00:13:19.177Z,16.60
2023-05-09T00:14:19.108Z,16.60
2023-05-09T00:15:20.090Z,16.60
2023-05-09T00:16:19.153Z,16.58
2023-05-09T00:17:19.160Z,16.57
2023-05-09T00:18:19.060Z,16.56
2023-05-09T00:19:19.052Z,16.56
2023-05-09T00:20:19.036Z,16.54
2023-05-09T00:21:19.137Z,16.53
2023-05-09T00:22:19.014Z,16.54
2023-05-09T00:23:19.132Z,16.54
2023-05-09T00:24:18.990Z,16.54
2023-05-09T00:25:19.085Z,16.54
2023-05-09T00:26:18.986Z,16.54
2023-05-09T00:27:18.997Z,16.53
2023-05-09T00:28:18.948Z,16.53
2023-05-09T00:29:18.941Z,16.54
2023-05-09T00:30:18.979Z,16.53
2023-05-09T00:31:18.923Z,16.53
2023-05-09T00:32:19.023Z,16.51
2023-05-09T00:33:18.899Z,16.53
2023-05-09T00:34:18.873Z,16.53
2023-05-09T00:35:18.905Z,16.51
2023-05-09T00:36:18.864Z,16.50
2023-05-09T00:37:18.892Z,16.49
2023-05-09T00:38:18.874Z,16.46
2023-05-09T00:39:18.839Z,16.46
2023-05-09T00:40:18.812Z,16.46
2023-05-09T00:41:18.796Z,16.43
2023-05-09T00:42:18.795Z,16.42
2023-05-09T00:43:18.807Z,16.42
2023-05-09T00:44:18.818Z,16.39
2023-05-09T00:45:18.777Z,16.39
2023-05-09T00:46:19.825Z,16.38
2023-05-09T00:47:18.775Z,16.38
2023-05-09T00:48:18.711Z,16.39
2023-05-09T00:49:18.726Z,16.39
2023-05-09T00:50:18.724Z,16.38
2023-05-09T00:51:19.765Z,16.38
2023-05-09T00:52:18.680Z,16.35
2023-05-09T00:53:18.687Z,16.35
2023-05-09T00:54:18.662Z,16.32
2023-05-09T00:55:18.675Z,16.33
2023-05-09T00:56:18.654Z,16.33
2023-05-09T00:57:18.633Z,16.32
2023-05-09T00:58:18.614Z,16.32
2023-05-09T00:59:18.679Z,16.35
2023-05-09T01:00:18.641Z,16.33
2023-05-09T01:01:18.714Z,16.35
2023-05-09T01:02:18.624Z,16.36
2023-05-09T01:03:18.693Z,16.36
2023-05-09T01:04:18.559Z,16.36
2023-05-09T01:05:18.552Z,16.33
2023-05-09T01:06:18.559Z,16.33
2023-05-09T01:07:18.524Z,16.33
2023-05-09T01:08:18.514Z,16.33
2023-05-09T01:09:18.509Z,16.33
2023-05-09T01:10:18.485Z,16.35
2023-05-09T01:11:18.510Z,16.35
2023-05-09T01:12:18.460Z,16.35
2023-05-09T01:13:18.500Z,16.35
2023-05-09T01:14:18.455Z,16.35
2023-05-09T01:15:18.450Z,16.36
2023-05-09T01:16:18.514Z,16.36
2023-05-09T01:17:18.468Z,16.39
2023-05-09T01:18:18.396Z,16.38
2023-05-09T01:19:18.392Z,16.41
2023-05-09T01:20:18.369Z,16.39
2023-05-09T01:21:18.388Z,16.41
2023-05-09T01:22:19.859Z,16.39
2023-05-09T01:23:18.336Z,16.38
2023-05-09T01:24:18.335Z,16.36
2023-05-09T01:25:18.361Z,16.35
2023-05-09T01:26:18.450Z,16.36
2023-05-09T01:27:18.434Z,16.38
2023-05-09T01:28:18.299Z,16.39
2023-05-09T01:29:18.272Z,16.36
2023-05-09T01:30:18.296Z,16.35
2023-05-09T01:31:18.306Z,16.36
2023-05-09T01:32:18.248Z,16.36
2023-05-09T01:33:18.264Z,16.35
2023-05-09T01:34:18.478Z,16.35
2023-05-09T01:35:18.211Z,16.33
2023-05-09T01:36:18.547Z,16.33
2023-05-09T01:37:18.261Z,16.33
2023-05-09T01:38:18.179Z,16.32
2023-05-09T01:39:18.187Z,16.33
2023-05-09T01:40:18.158Z,16.36
2023-05-09T01:41:18.159Z,16.38
2023-05-09T01:42:18.131Z,16.39
2023-05-09T01:43:18.163Z,16.38
2023-05-09T01:44:18.148Z,16.39
2023-05-09T01:45:19.559Z,16.39
2023-05-09T01:46:18.126Z,16.39
2023-05-09T01:47:18.917Z,16.41
2023-05-09T01:48:18.520Z,16.41
2023-05-09T01:49:18.125Z,16.41
2023-05-09T01:50:19.171Z,16.42
2023-05-09T01:51:18.868Z,16.42
2023-05-09T01:52:19.001Z,16.43
2023-05-09T01:53:19.471Z,16.43
2023-05-09T01:54:18.796Z,16.43
2023-05-09T01:55:19.455Z,16.43
2023-05-09T01:56:19.457Z,16.43
2023-05-09T01:57:18.939Z,16.42
2023-05-09T01:58:18.171Z,16.42
2023-05-09T01:59:18.792Z,16.42
2023-05-09T02:00:18.154Z,16.42
2023-05-09T02:01:19.429Z,16.43
2023-05-09T02:02:18.095Z,16.46
2023-05-09T02:03:18.912Z,16.47
2023-05-09T02:04:18.713Z,16.50
2023-05-09T02:05:18.013Z,16.50
2023-05-09T02:06:18.832Z,16.51
2023-05-09T02:07:19.338Z,16.51
2023-05-09T02:08:18.645Z,16.50
2023-05-09T02:09:18.148Z,16.50
2023-05-09T02:10:19.295Z,16.50
2023-05-09T02:11:19.282Z,16.53
2023-05-09T02:12:17.938Z,16.53
2023-05-09T02:13:18.680Z,16.53
2023-05-09T02:14:17.796Z,16.51
2023-05-09T02:15:19.253Z,16.51
2023-05-09T02:16:19.008Z,16.51
2023-05-09T02:17:19.227Z,16.50
2023-05-09T02:18:17.747Z,16.50
2023-05-09T02:19:18.563Z,16.47
2023-05-09T02:20:17.722Z,16.49
2023-05-09T02:21:17.791Z,16.49
2023-05-09T02:22:18.544Z,16.47
2023-05-09T02:23:17.681Z,16.47
2023-05-09T02:24:19.168Z,16.47
2023-05-09T02:25:18.488Z,16.49
2023-05-09T02:26:19.257Z,16.50
2023-05-09T02:27:17.762Z,16.50
2023-05-09T02:28:18.590Z,16.50
2023-05-09T02:29:17.809Z,16.50
2023-05-09T02:30:19.611Z,16.50
2023-05-09T02:31:17.746Z,16.51
2023-05-09T02:32:18.568Z,16.51
2023-05-09T02:33:17.581Z,16.50
2023-05-09T02:34:18.383Z,16.51
2023-05-09T02:35:18.992Z,16.50
2023-05-09T02:36:18.385Z,16.51
2023-05-09T02:37:17.529Z,16.50
2023-05-09T02:38:17.827Z,16.50
2023-05-09T02:39:19.525Z,16.51
2023-05-09T02:40:18.460Z,16.51
2023-05-09T02:41:18.956Z,16.56
2023-05-09T02:42:18.484Z,16.56
2023-05-09T02:43:17.457Z,16.58
2023-05-09T02:44:17.499Z,16.58
2023-05-09T02:45:18.968Z,16.58
2023-05-09T02:46:17.451Z,16.58
2023-05-09T02:47:18.225Z,16.60
2023-05-09T02:48:17.400Z,16.61
2023-05-09T02:49:31.466Z,16.60
2023-05-09T02:50:18.403Z,16.60
2023-05-09T02:51:17.493Z,16.61
2023-05-09T02:52:17.407Z,16.61
2023-05-09T02:53:18.843Z,16.61
2023-05-09T02:54:17.354Z,16.60
2023-05-09T02:55:17.699Z,16.61
2023-05-09T02:56:17.542Z,16.64
2023-05-09T02:57:18.764Z,16.65
2023-05-09T02:58:18.152Z,16.65
2023-05-09T02:59:18.770Z,16.65
2023-05-09T03:00:17.607Z,16.65
2023-05-09T03:01:18.276Z,16.65
2023-05-09T03:02:18.719Z,16.65
2023-05-09T03:03:17.351Z,16.66
2023-05-09T03:04:18.132Z,16.66
2023-05-09T03:05:18.676Z,16.66
2023-05-09T03:06:17.646Z,16.65
2023-05-09T03:07:18.185Z,16.65
2023-05-09T03:08:17.199Z,16.65
2023-05-09T03:09:17.985Z,16.65
2023-05-09T03:10:18.669Z,16.66
2023-05-09T03:11:17.169Z,16.66
2023-05-09T03:12:18.653Z,16.64
2023-05-09T03:13:18.135Z,16.65
2023-05-09T03:14:17.970Z,16.64
2023-05-09T03:15:17.212Z,16.65
2023-05-09T03:16:17.914Z,16.65
2023-05-09T03:17:18.574Z,16.65
2023-05-09T03:18:17.432Z,16.65
2023-05-09T03:19:18.534Z,16.65
2023-05-09T03:20:18.526Z,16.64
2023-05-09T03:21:17.059Z,16.64
2023-05-09T03:22:17.031Z,16.64
2023-05-09T03:23:19.020Z,16.60
2023-05-09T03:24:17.030Z,16.60
2023-05-09T03:25:17.548Z,16.60
2023-05-09T03:26:18.456Z,16.61
2023-05-09T03:27:18.434Z,16.58
2023-05-09T03:28:17.825Z,16.56
2023-05-09T03:29:17.488Z,16.56
2023-05-09T03:30:18.398Z,16.58
2023-05-09T03:31:17.023Z,16.60
2023-05-09T03:32:17.010Z,16.58
2023-05-09T03:33:16.912Z,16.58
2023-05-09T03:34:16.917Z,16.61
2023-05-09T03:35:17.377Z,16.60
2023-05-09T03:36:16.920Z,16.61
2023-05-09T03:37:17.670Z,16.61
2023-05-09T03:38:16.923Z,16.61
2023-05-09T03:39:16.967Z,16.61
2023-05-09T03:40:18.351Z,16.60
2023-05-09T03:41:17.099Z,16.58
2023-05-09T03:42:16.979Z,16.58
2023-05-09T03:43:18.310Z,16.60
2023-05-09T03:44:17.628Z,16.57
2023-05-09T03:45:17.165Z,16.60
2023-05-09T03:46:16.871Z,16.60
2023-05-09T03:47:16.887Z,16.61
2023-05-09T03:48:16.790Z,16.61
2023-05-09T03:49:17.035Z,16.64
2023-05-09T03:50:16.724Z,16.61
2023-05-09T03:51:18.247Z,16.60
2023-05-09T03:52:16.720Z,16.60
2023-05-09T03:53:17.518Z,16.60
2023-05-09T03:54:16.918Z,16.58
2023-05-09T03:55:16.978Z,16.57
2023-05-09T03:56:17.516Z,16.57
2023-05-09T03:57:17.440Z,16.56
2023-05-09T03:58:16.645Z,16.56
2023-05-09T03:59:16.633Z,16.54
2023-05-09T04:00:16.692Z,16.53
2023-05-09T04:01:16.652Z,16.51
2023-05-09T04:02:17.073Z,16.50
2023-05-09T04:03:16.703Z,16.49
2023-05-09T04:04:16.573Z,16.49
2023-05-09T04:05:16.946Z,16.49
2023-05-09T04:06:16.572Z,16.50
2023-05-09T04:07:16.556Z,16.50
2023-05-09T04:08:17.368Z,16.50
2023-05-09T04:09:16.536Z,16.50
2023-05-09T04:10:16.551Z,16.50
2023-05-09T04:11:16.590Z,16.50
2023-05-09T04:12:16.514Z,16.50
2023-05-09T04:13:17.998Z,16.51
2023-05-09T04:14:16.503Z,16.51
2023-05-09T04:15:16.644Z,16.51
2023-05-09T04:16:17.555Z,16.53
2023-05-09T04:17:17.427Z,16.51
2023-05-09T04:18:17.878Z,16.54
2023-05-09T04:19:16.475Z,16.53
2023-05-09T04:20:16.507Z,16.50
2023-05-09T04:21:16.419Z,16.51
2023-05-09T04:22:17.200Z,16.51
2023-05-09T04:23:16.386Z,16.53
2023-05-09T04:24:16.387Z,16.53
2023-05-09T04:25:17.841Z,16.51
2023-05-09T04:26:16.350Z,16.50
2023-05-09T04:27:16.310Z,16.49
2023-05-09T04:28:17.117Z,16.49
2023-05-09T04:29:16.594Z,16.49
2023-05-09T04:30:16.325Z,16.50
2023-05-09T04:31:16.383Z,16.50
2023-05-09T04:32:16.306Z,16.49
2023-05-09T04:33:16.249Z,16.49
2023-05-09T04:34:16.297Z,16.50
2023-05-09T04:35:19.676Z,16.49
2023-05-09T04:36:17.667Z,16.46
2023-05-09T04:37:16.252Z,16.46
2023-05-09T04:38:16.192Z,16.46
2023-05-09T04:39:16.173Z,16.46
2023-05-09T04:40:16.152Z,16.42
2023-05-09T04:41:16.212Z,16.43
2023-05-09T04:42:16.157Z,16.43
2023-05-09T04:43:16.165Z,16.42
2023-05-09T04:44:16.173Z,16.42
2023-05-09T04:45:16.355Z,16.39
2023-05-09T04:46:16.163Z,16.39
2023-05-09T04:47:16.352Z,16.38
2023-05-09T04:48:17.550Z,16.36
2023-05-09T04:49:16.113Z,16.35
2023-05-09T04:50:17.526Z,16.36
2023-05-09T04:51:16.065Z,16.36
2023-05-09T04:52:17.504Z,16.36
2023-05-09T04:53:18.003Z,16.36
2023-05-09T04:54:16.025Z,16.38
2023-05-09T04:55:16.453Z,16.39
2023-05-09T04:56:17.002Z,16.39
2023-05-09T04:57:18.246Z,16.41
2023-05-09T04:58:16.013Z,16.41
2023-05-09T04:59:16.127Z,16.46
2023-05-09T05:00:17.400Z,16.43
2023-05-09T05:01:17.475Z,16.43
2023-05-09T05:02:16.097Z,16.43
2023-05-09T05:03:16.715Z,16.43
2023-05-09T05:04:17.412Z,16.46
2023-05-09T05:05:16.315Z,16.43
2023-05-09T05:06:17.363Z,16.43
2023-05-09T05:07:17.355Z,16.42
2023-05-09T05:08:25.059Z,16.42
2023-05-09T05:09:17.310Z,16.43
2023-05-09T05:10:17.364Z,16.43
2023-05-09T05:11:15.863Z,16.47
2023-05-09T05:12:16.794Z,16.47
2023-05-09T05:13:15.898Z,16.47
2023-05-09T05:14:16.765Z,16.49
2023-05-09T05:15:17.298Z,16.47
2023-05-09T05:16:16.300Z,16.49
2023-05-09T05:17:17.293Z,16.49
2023-05-09T05:18:15.774Z,16.47
2023-05-09T05:19:15.851Z,16.46
2023-05-09T05:20:16.682Z,16.47
2023-05-09T05:21:15.987Z,16.49
2023-05-09T05:22:15.988Z,16.50
2023-05-09T05:23:15.712Z,16.50
2023-05-09T05:24:15.700Z,16.51
2023-05-09T05:25:17.394Z,16.50
2023-05-09T05:26:17.097Z,16.53
2023-05-09T05:27:15.790Z,16.51
2023-05-09T05:28:17.112Z,16.53
2023-05-09T05:29:16.652Z,16.53
2023-05-09T05:30:15.697Z,16.54
2023-05-09T05:31:16.134Z,16.56
2023-05-09T05:32:15.605Z,16.57
2023-05-09T05:33:15.582Z,16.57
2023-05-09T05:34:17.587Z,16.57
2023-05-09T05:35:15.941Z,16.58
2023-05-09T05:36:15.788Z,16.60
2023-05-09T05:37:15.593Z,16.60
2023-05-09T05:38:15.526Z,16.65
2023-05-09T05:39:15.511Z,16.68
2023-05-09T05:40:15.687Z,16.71
2023-05-09T05:41:15.474Z,16.75
2023-05-09T05:42:15.747Z,16.78
2023-05-09T05:43:15.462Z,16.84
2023-05-09T05:44:15.471Z,16.87
2023-05-09T05:45:15.772Z,16.90
2023-05-09T05:46:15.546Z,16.93
2023-05-09T05:47:15.482Z,16.96
2023-05-09T05:48:15.412Z,16.99
2023-05-09T05:49:15.395Z,17.01
2023-05-09T05:50:15.404Z,17.02
2023-05-09T05:51:16.245Z,17.04
2023-05-09T05:52:15.370Z,17.05
2023-05-09T05:53:15.366Z,17.05
2023-05-09T05:54:17.312Z,17.05
2023-05-09T05:55:15.553Z,17.08
2023-05-09T05:56:15.416Z,17.12
2023-05-09T05:57:15.465Z,17.19
2023-05-09T05:58:16.763Z,17.22
2023-05-09T05:59:15.357Z,17.27
2023-05-09T06:00:15.340Z,17.33
2023-05-09T06:01:15.279Z,17.36
2023-05-09T06:02:15.316Z,17.41
2023-05-09T06:03:15.309Z,17.48
2023-05-09T06:04:15.354Z,17.46
2023-05-09T06:05:16.953Z,17.51
2023-05-09T06:06:15.226Z,17.52
2023-05-09T06:07:15.487Z,17.51
2023-05-09T06:08:15.207Z,17.57
2023-05-09T06:09:16.004Z,17.59
2023-05-09T06:10:16.640Z,17.64
2023-05-09T06:11:16.626Z,17.64
2023-05-09T06:12:15.150Z,17.64
2023-05-09T06:13:16.639Z,17.64
2023-05-09T06:14:15.986Z,17.60
2023-05-09T06:15:15.579Z,17.57
2023-05-09T06:16:20.002Z,17.57
2023-05-09T06:17:17.416Z,17.57
2023-05-09T06:18:15.902Z,17.56
2023-05-09T06:19:15.180Z,17.54
2023-05-09T06:20:15.060Z,17.54
2023-05-09T06:21:16.547Z,17.56
2023-05-09T06:22:15.067Z,17.56
2023-05-09T06:23:15.009Z,17.56
2023-05-09T06:24:27.582Z,17.56
2023-05-09T06:25:16.741Z,17.56
2023-05-09T06:26:15.098Z,17.59
2023-05-09T06:27:15.009Z,17.59
2023-05-09T06:28:16.426Z,17.63
2023-05-09T06:29:16.430Z,17.65
2023-05-09T06:30:25.322Z,17.67
2023-05-09T06:31:15.967Z,17.70
2023-05-09T06:32:15.008Z,17.74
2023-05-09T06:33:15.767Z,17.79
2023-05-09T06:34:15.871Z,17.85
2023-05-09T06:35:15.103Z,17.87
2023-05-09T06:36:14.873Z,17.86
2023-05-09T06:37:15.061Z,17.85
2023-05-09T06:38:15.335Z,17.89
2023-05-09T06:39:14.857Z,17.87
2023-05-09T06:40:14.869Z,17.89
2023-05-09T06:41:14.812Z,17.90
2023-05-09T06:42:14.803Z,17.92
2023-05-09T06:43:15.749Z,17.94
2023-05-09T06:44:14.839Z,17.97
2023-05-09T06:45:16.062Z,17.98
2023-05-09T06:46:14.788Z,17.98
2023-05-09T06:47:14.785Z,18.00
2023-05-09T06:48:14.742Z,18.03
2023-05-09T06:49:14.722Z,18.04
2023-05-09T06:50:14.720Z,18.04
2023-05-09T06:51:15.619Z,18.05
2023-05-09T06:52:14.690Z,18.10
2023-05-09T06:53:14.689Z,18.15
2023-05-09T06:54:14.688Z,18.16
2023-05-09T06:55:14.982Z,18.20
2023-05-09T06:56:14.658Z,18.20
2023-05-09T06:57:14.650Z,18.20
2023-05-09T06:58:14.668Z,18.19
2023-05-09T06:59:14.631Z,18.18
2023-05-09T07:00:14.679Z,18.20
2023-05-09T07:01:14.615Z,18.22
2023-05-09T07:02:14.601Z,18.25
2023-05-09T07:03:14.611Z,18.28
2023-05-09T07:04:14.607Z,18.33
2023-05-09T07:05:14.741Z,18.33
2023-05-09T07:06:14.568Z,18.37
2023-05-09T07:07:14.702Z,18.41
2023-05-09T07:08:14.547Z,18.44
2023-05-09T07:09:14.595Z,18.50
2023-05-09T07:10:14.498Z,18.56
2023-05-09T07:11:15.481Z,18.60
2023-05-09T07:12:15.510Z,18.63
2023-05-09T07:13:14.493Z,18.68
2023-05-09T07:14:14.673Z,18.71
2023-05-09T07:15:20.393Z,18.74
2023-05-09T07:16:15.548Z,18.77
2023-05-09T07:17:22.851Z,18.78
2023-05-09T07:18:15.482Z,18.80
2023-05-09T07:19:15.157Z,18.81
2023-05-09T07:20:14.421Z,18.81
2023-05-09T07:21:14.429Z,18.83
2023-05-09T07:22:14.433Z,18.86
2023-05-09T07:23:14.334Z,18.86
2023-05-09T07:24:14.345Z,18.90
2023-05-09T07:25:14.519Z,18.92
2023-05-09T07:26:14.363Z,18.95
2023-05-09T07:27:15.276Z,18.98
2023-05-09T07:28:14.337Z,18.99
2023-05-09T07:29:14.313Z,19.00
2023-05-09T07:30:14.498Z,19.02
2023-05-09T07:31:14.294Z,19.00
2023-05-09T07:32:15.325Z,19.02
2023-05-09T07:33:14.333Z,19.04
2023-05-09T07:34:14.260Z,19.07
2023-05-09T07:35:14.489Z,19.07
2023-05-09T07:36:14.282Z,19.04
2023-05-09T07:37:16.378Z,19.04
2023-05-09T07:38:14.313Z,19.07
2023-05-09T07:39:14.189Z,19.07
2023-05-09T07:40:16.634Z,19.09
2023-05-09T07:41:14.204Z,19.09
2023-05-09T07:42:14.212Z,19.11
2023-05-09T07:43:14.450Z,19.11
2023-05-09T07:44:14.147Z,19.12
2023-05-09T07:45:14.323Z,19.12
2023-05-09T07:46:14.198Z,19.16
2023-05-09T07:47:14.088Z,19.21
2023-05-09T07:48:14.117Z,19.22
2023-05-09T07:49:14.046Z,19.26
2023-05-09T07:50:15.125Z,19.27
2023-05-09T07:51:14.064Z,19.29
2023-05-09T07:52:15.024Z,19.31
2023-05-09T07:53:14.070Z,19.31
2023-05-09T07:54:14.501Z,19.36
2023-05-09T07:55:14.304Z,19.39
2023-05-09T07:56:14.254Z,19.37
2023-05-09T07:57:14.128Z,19.41
2023-05-09T07:58:14.527Z,19.45
2023-05-09T07:59:13.959Z,19.49
2023-05-09T08:00:13.956Z,19.51
2023-05-09T08:01:13.929Z,19.49
2023-05-09T08:02:14.017Z,19.47
2023-05-09T08:03:14.596Z,19.44
2023-05-09T08:04:14.733Z,19.44
2023-05-09T08:05:14.269Z,19.45
2023-05-09T08:06:13.899Z,19.49
2023-05-09T08:07:14.830Z,19.52
2023-05-09T08:08:14.523Z,19.55
2023-05-09T08:09:14.720Z,19.58
2023-05-09T08:10:13.837Z,19.63
2023-05-09T08:11:13.871Z,19.67
2023-05-09T08:12:13.840Z,19.71
2023-05-09T08:13:14.798Z,19.76
2023-05-09T08:14:15.039Z,19.81
2023-05-09T08:15:14.224Z,19.84
2023-05-09T08:16:14.812Z,19.82
2023-05-09T08:17:13.775Z,19.77
2023-05-09T08:18:13.797Z,19.74
2023-05-09T08:19:13.749Z,19.73
2023-05-09T08:20:14.557Z,19.76
2023-05-09T08:21:13.754Z,19.76
2023-05-09T08:22:13.788Z,19.81
2023-05-09T08:23:13.705Z,19.88
2023-05-09T08:24:13.701Z,19.92
2023-05-09T08:25:13.918Z,20.00
2023-05-09T08:26:14.639Z,20.04
2023-05-09T08:27:14.473Z,20.06
2023-05-09T08:28:14.476Z,20.10
2023-05-09T08:29:14.600Z,20.10
2023-05-09T08:30:13.684Z,20.13
2023-05-09T08:31:13.706Z,20.11
2023-05-09T08:32:13.646Z,20.13
2023-05-09T08:33:13.680Z,20.14
2023-05-09T08:34:14.541Z,20.16
2023-05-09T08:35:13.763Z,20.18
2023-05-09T08:36:13.810Z,20.18
2023-05-09T08:37:15.394Z,20.28
2023-05-09T08:38:13.538Z,20.32
2023-05-09T08:39:13.500Z,20.28
2023-05-09T08:40:13.731Z,20.29
2023-05-09T08:41:13.497Z,20.29
2023-05-09T08:42:13.763Z,20.28
2023-05-09T08:43:13.522Z,20.28
2023-05-09T08:44:17.386Z,20.29
2023-05-09T08:45:13.445Z,20.29
2023-05-09T08:46:13.775Z,20.29
2023-05-09T08:47:13.638Z,20.28
2023-05-09T08:48:13.454Z,20.26
2023-05-09T08:49:13.436Z,20.26
2023-05-09T08:50:13.730Z,20.26
2023-05-09T08:51:13.485Z,20.26
2023-05-09T08:52:13.387Z,20.26
2023-05-09T08:53:13.386Z,20.25
2023-05-09T08:54:13.502Z,20.25
2023-05-09T08:55:13.385Z,20.22
2023-05-09T08:56:13.322Z,20.21
2023-05-09T08:57:13.389Z,20.18
2023-05-09T08:58:14.253Z,20.21
2023-05-09T08:59:13.305Z,20.24
2023-05-09T09:00:13.950Z,20.28
2023-05-09T09:01:13.347Z,20.32
2023-05-09T09:02:13.267Z,20.37
2023-05-09T09:03:13.280Z,20.41
2023-05-09T09:04:13.253Z,20.50
2023-05-09T09:05:34.146Z,20.50
2023-05-09T09:06:14.217Z,20.50
2023-05-09T09:07:13.780Z,20.55
2023-05-09T09:08:13.240Z,20.60
2023-05-09T09:09:13.216Z,20.62
2023-05-09T09:10:13.848Z,20.67
2023-05-09T09:11:13.190Z,20.75
2023-05-09T09:12:13.334Z,20.82
2023-05-09T09:13:13.165Z,20.90
2023-05-09T09:14:13.622Z,20.97
2023-05-09T09:15:14.227Z,21.03
2023-05-09T09:16:13.156Z,21.03
2023-05-09T09:17:14.561Z,21.06
2023-05-09T09:18:13.180Z,21.12
2023-05-09T09:19:13.132Z,21.17
2023-05-09T09:20:14.730Z,21.20
2023-05-09T09:21:13.727Z,21.22
2023-05-09T09:22:13.488Z,21.25
2023-05-09T09:23:13.779Z,21.27
2023-05-09T09:24:13.687Z,21.30
2023-05-09T09:25:13.598Z,21.32
2023-05-09T09:26:13.754Z,21.33
2023-05-09T09:27:13.124Z,21.36
2023-05-09T09:28:12.986Z,21.36
2023-05-09T09:29:13.723Z,21.37
2023-05-09T09:30:13.952Z,21.35
2023-05-09T09:31:16.609Z,21.32
2023-05-09T09:32:14.553Z,21.30
2023-05-09T09:33:12.914Z,21.24
2023-05-09T09:34:13.761Z,21.18
2023-05-09T09:35:13.853Z,21.14
2023-05-09T09:36:13.435Z,21.11
2023-05-09T09:37:14.345Z,21.09
2023-05-09T09:38:14.318Z,21.11
2023-05-09T09:39:12.846Z,21.12
2023-05-09T09:40:14.006Z,21.15
2023-05-09T09:41:14.297Z,21.15
2023-05-09T09:42:12.816Z,21.17
2023-05-09T09:43:12.819Z,21.18
2023-05-09T09:44:14.282Z,21.14
2023-05-09T09:45:14.264Z,21.12
2023-05-09T09:46:13.627Z,21.12
2023-05-09T09:47:14.234Z,21.09
2023-05-09T09:48:13.697Z,21.07
2023-05-09T09:49:13.605Z,21.00
2023-05-09T09:50:13.029Z,20.97
2023-05-09T09:51:13.758Z,20.99
2023-05-09T09:52:14.171Z,20.99
2023-05-09T09:53:12.884Z,21.00
2023-05-09T09:54:14.175Z,21.02
2023-05-09T09:55:13.788Z,21.05
2023-05-09T09:56:14.172Z,21.09
2023-05-09T09:57:13.530Z,21.15
2023-05-09T09:58:13.514Z,21.22
2023-05-09T09:59:13.412Z,21.27
2023-05-09T10:00:12.887Z,21.32
2023-05-09T10:01:12.672Z,21.35
2023-05-09T10:02:14.066Z,21.37
2023-05-09T10:03:12.755Z,21.40
2023-05-09T10:04:14.138Z,21.37
2023-05-09T10:05:14.062Z,21.39
2023-05-09T10:06:14.052Z,21.37
2023-05-09T10:07:15.147Z,21.37
2023-05-09T10:08:14.000Z,21.39
2023-05-09T10:09:13.362Z,21.39
2023-05-09T10:10:14.163Z,21.36
2023-05-09T10:11:14.060Z,21.35
2023-05-09T10:12:12.489Z,21.32
2023-05-09T10:13:13.546Z,21.27
2023-05-09T10:14:13.935Z,21.25
2023-05-09T10:15:13.944Z,21.21
2023-05-09T10:16:13.334Z,21.21
2023-05-09T10:17:14.160Z,21.18
2023-05-09T10:18:13.442Z,21.20
2023-05-09T10:19:13.270Z,21.18
2023-05-09T10:20:14.073Z,21.15
2023-05-09T10:21:13.859Z,21.12
2023-05-09T10:22:13.190Z,21.15
2023-05-09T10:23:13.193Z,21.17
2023-05-09T10:24:13.192Z,21.18
2023-05-09T10:25:13.401Z,21.22
2023-05-09T10:26:12.412Z,21.25
2023-05-09T10:27:13.389Z,21.25
2023-05-09T10:28:13.184Z,21.29
2023-05-09T10:29:13.264Z,21.33
2023-05-09T10:30:12.512Z,21.35
2023-05-09T10:31:13.169Z,21.37
2023-05-09T10:32:12.340Z,21.40
2023-05-09T10:33:13.113Z,21.43
2023-05-09T10:34:13.749Z,21.45
2023-05-09T10:35:13.994Z,21.48
2023-05-09T10:36:13.217Z,21.50
2023-05-09T10:37:13.684Z,21.52
2023-05-09T10:38:13.056Z,21.54
2023-05-09T10:39:13.654Z,21.54
2023-05-09T10:40:13.655Z,21.57
2023-05-09T10:41:13.030Z,21.55
2023-05-09T10:42:13.615Z,21.54
2023-05-09T10:43:13.619Z,21.54
2023-05-09T10:44:12.142Z,21.55
2023-05-09T10:45:13.409Z,21.57
2023-05-09T10:46:12.434Z,21.60
2023-05-09T10:47:12.987Z,21.61
2023-05-09T10:48:12.137Z,21.64
2023-05-09T10:49:13.544Z,21.66
2023-05-09T10:50:13.514Z,21.70
2023-05-09T10:51:12.124Z,21.75
2023-05-09T10:52:14.013Z,21.77
2023-05-09T10:53:12.872Z,21.79
2023-05-09T10:54:12.025Z,21.83
2023-05-09T10:55:12.198Z,21.85
2023-05-09T10:56:12.146Z,21.85
2023-05-09T10:57:12.226Z,21.88
2023-05-09T10:58:12.790Z,21.89
2023-05-09T10:59:13.430Z,21.88
2023-05-09T11:00:12.337Z,21.85
2023-05-09T11:01:13.438Z,21.85
2023-05-09T11:02:12.170Z,21.88
2023-05-09T11:03:13.486Z,21.88
2023-05-09T11:04:12.840Z,21.85
2023-05-09T11:05:13.657Z,21.91
2023-05-09T11:06:12.353Z,21.92
2023-05-09T11:07:13.351Z,21.89
2023-05-09T11:08:12.707Z,21.89
2023-05-09T11:09:12.710Z,21.85
2023-05-09T11:10:13.317Z,21.85
2023-05-09T11:11:11.897Z,21.88
2023-05-09T11:12:13.318Z,21.82
2023-05-09T11:13:13.372Z,21.85
2023-05-09T11:14:13.281Z,21.89
2023-05-09T11:15:12.827Z,21.95
2023-05-09T11:16:12.017Z,21.98
2023-05-09T11:17:13.285Z,22.04
2023-05-09T11:18:11.915Z,22.11
2023-05-09T11:19:13.218Z,22.15
2023-05-09T11:20:12.579Z,22.18
2023-05-09T11:21:13.195Z,22.20
2023-05-09T11:22:11.943Z,22.25
2023-05-09T11:23:11.960Z,22.28
2023-05-09T11:24:13.148Z,22.32
2023-05-09T11:25:12.651Z,22.38
2023-05-09T11:26:13.633Z,22.47
2023-05-09T11:27:13.131Z,22.51
2023-05-09T11:28:13.110Z,22.59
2023-05-09T11:29:12.469Z,22.66
2023-05-09T11:30:11.675Z,22.72
2023-05-09T11:31:12.483Z,22.75
2023-05-09T11:32:13.239Z,22.80
2023-05-09T11:33:12.586Z,22.83
2023-05-09T11:34:11.641Z,22.85
2023-05-09T11:35:13.135Z,22.88
2023-05-09T11:36:12.393Z,22.91
2023-05-09T11:37:13.017Z,22.93
2023-05-09T11:38:12.394Z,22.98
2023-05-09T11:39:12.580Z,23.02
2023-05-09T11:40:12.989Z,23.03
2023-05-09T11:41:12.326Z,23.05
2023-05-09T11:42:12.314Z,23.09
2023-05-09T11:43:12.957Z,23.15
2023-05-09T11:44:13.452Z,23.20
2023-05-09T11:45:11.941Z,23.24
2023-05-09T11:46:12.339Z,23.27
2023-05-09T11:47:11.453Z,23.28
2023-05-09T11:48:11.663Z,23.28
2023-05-09T11:49:12.489Z,23.28
2023-05-09T11:50:12.888Z,23.32
2023-05-09T11:51:11.704Z,23.32
2023-05-09T11:52:11.639Z,23.31
2023-05-09T11:53:11.572Z,23.15
2023-05-09T11:54:12.229Z,23.03
2023-05-09T11:55:13.097Z,22.99
2023-05-09T11:56:11.430Z,22.99
2023-05-09T11:57:12.794Z,22.98
2023-05-09T11:58:12.150Z,22.99
2023-05-09T11:59:11.567Z,23.02
2023-05-09T12:00:12.752Z,23.06
2023-05-09T12:01:12.762Z,23.08
2023-05-09T12:02:12.441Z,23.06
2023-05-09T12:03:13.001Z,23.09
2023-05-09T12:04:11.300Z,23.18
2023-05-09T12:05:13.019Z,23.27
2023-05-09T12:06:11.326Z,23.32
2023-05-09T12:07:12.700Z,23.39
2023-05-09T12:08:11.257Z,23.41
2023-05-09T12:09:12.669Z,23.43
2023-05-09T12:10:12.654Z,23.46
2023-05-09T12:11:12.665Z,23.48
2023-05-09T12:12:12.714Z,23.54
2023-05-09T12:13:11.255Z,23.56
2023-05-09T12:14:12.605Z,23.54
2023-05-09T12:15:11.160Z,23.48
2023-05-09T12:16:11.173Z,23.44
2023-05-09T12:17:12.657Z,23.43
2023-05-09T12:18:11.157Z,23.39
2023-05-09T12:19:11.199Z,23.36
2023-05-09T12:20:11.335Z,23.32
2023-05-09T12:21:13.035Z,23.27
2023-05-09T12:22:12.594Z,23.27
2023-05-09T12:23:11.173Z,23.31
2023-05-09T12:24:11.028Z,23.31
2023-05-09T12:25:12.680Z,23.32
2023-05-09T12:26:11.204Z,23.32
2023-05-09T12:27:12.539Z,23.28
2023-05-09T12:28:12.454Z,23.27
2023-05-09T12:29:11.837Z,23.28
2023-05-09T12:30:12.436Z,23.32
2023-05-09T12:31:11.259Z,23.31
2023-05-09T12:32:12.416Z,23.31
2023-05-09T12:33:11.024Z,23.31
2023-05-09T12:34:12.392Z,23.32
2023-05-09T12:35:11.306Z,23.32
2023-05-09T12:36:10.927Z,23.40
2023-05-09T12:37:10.923Z,23.50
2023-05-09T12:38:10.876Z,23.58
2023-05-09T12:39:10.998Z,23.69
2023-05-09T12:40:10.849Z,23.78
2023-05-09T12:41:33.331Z,23.84
2023-05-09T12:42:13.306Z,23.91
2023-05-09T12:43:11.056Z,23.88
2023-05-09T12:44:10.930Z,23.88
2023-05-09T12:45:11.865Z,23.83
2023-05-09T12:46:12.427Z,23.80
2023-05-09T12:47:11.708Z,23.73
2023-05-09T12:48:11.829Z,23.61
2023-05-09T12:49:10.756Z,23.54
2023-05-09T12:50:12.296Z,23.46
2023-05-09T12:51:12.295Z,23.36
2023-05-09T12:52:10.765Z,23.28